Adjud, Romania

11:45 PM EET on February 07, 2016 (GMT +0200)
Bacau | | Change Station
CLOSE
Current Station
Airport
Location: Bacau,
Elevation: 607 ft
Nearby Weather Stations

Elev 607 ft 46.52 °N, 26.91 °E | Updated 45 minutes ago

Clear
Clear
32 °F
Feels Like 20 °F
N
18
Wind Variable Wind from SSE

Today
High -- | Low -- °F
--% Chance of Precip.
Yesterday
High -- | Low -- °F
Precip. -- in
Pressure 30.21 in
Visibility 6.2 miles
Clouds
Windchill 20 °F
Dew Point 30 °F
Humidity 93%
Rainfall 0.00 in
Snow Depth Not available.
7:27 AM 5:24 PM
Waning Crescent, 1% visible
METAR LRBC 072100Z AUTO 16016KT 9999 NCD 00/M01 Q1023
Pressure 30.21 in
Visibility 6.2 miles
Clouds
Windchill 20 °F
Dew Point 30 °F
Humidity 93%
Rainfall 0.00 in
Snow Depth Not available.
7:27 AM 5:24 PM
Waning Crescent, 1% visible
METAR LRBC 072100Z AUTO 16016KT 9999 NCD 00/M01 Q1023

10-Day Weather Forecast

Almanac

Astronomy

Feb. 07, 2016 Rise Set
Actual Time
Civil Twilight
Nautical Twilight
Astronomical Twilight
Moon
Length of Visible Light
Length of Day
Tomorrow will be .
, % of the Moon is Illuminated

Today's Extremes

Country Highs Country Lows

Community

WunderPhotos

Upload Photos

1,891,304 photos uploaded!

WunderBlog® & News

Nearby

Air Quality

  Air Quality AQ Index Pollutant
Not available.

Snow Depth

Station Depth Elevation

Earthquake Activity

City Distance Mag. Time & Date
Minimum magnitude displayed is 2.5.

Coastal Water Temperatures

Place Temperature

Stations

Nearby Weather Stations

Station Location Temp. Windchill Dew Point Humidity Wind Precip. Elev Updated Type